Dallas, Texas
Traffic Map
Current Weather Conditions
Dallas, Texas
Broken Clouds
Broken Clouds
23°
Feels Like: 23°
Wind Chill: 23° Ceiling: 1900
Heat Index: 23° Visibility: 10mi
Dew Point: 17° Wind: 10mph
Humidity: 71% Direction: 210° (SSW)
Pressure: 30.01in Gusts: 0mph
Raw Report DataKDAL 311508Z 21009KT 10SM BKN019 BKN250 23/17 A3001 RMK AO2 BKN019 V SCT T02280172
Traffic Incident Summary
Active as of:
Severity:
Category:
InformationThere was an issue retrieving the traffic information for this location. Please try a different location or try again shortly.
Advertisements
Track Severe Weather on mobile